Time;durP1;ratioP1;P1;durP2;ratioP2;P2;SDS_P1;SDS_P2;PMS_P1;PMS_P2;Temp;Humidity;BMP_temperature;BMP_pressure;BME280_temperature;BME280_humidity;BME280_pressure;Samples;Min_cycle;Max_cycle;Signal;HPM_P1;HPM_P2
2022/05/16 00:00:00;;;;;;;7.75;3.00;;;;;;;20.13;49.66;100423.50;4124279;28;20133;-68
2022/05/16 00:02:14;;;;;;;5.05;2.55;;;;;;;20.11;49.78;100421.84;4126060;28;20439;-67
2022/05/16 00:04:19;;;;;;;8.60;2.90;;;;;;;20.05;49.62;100426.34;4123471;28;20504;-67
2022/05/16 00:06:22;;;;;;;7.35;3.10;;;;;;;20.02;49.19;100415.03;4131434;28;20057;-71
2022/05/16 00:08:25;;;;;;;5.90;2.65;;;;;;;20.00;49.65;100417.66;4130172;28;20117;-68
2022/05/16 00:10:28;;;;;;;7.07;2.50;;;;;;;20.03;49.35;100414.09;4129022;28;20050;-65
2022/05/16 00:12:31;;;;;;;4.60;2.30;;;;;;;20.02;49.43;100415.88;4136076;28;20041;-68
2022/05/16 00:14:36;;;;;;;8.40;2.60;;;;;;;19.94;49.84;100406.41;4134180;28;20034;-67
2022/05/16 00:16:39;;;;;;;12.68;3.45;;;;;;;19.91;49.50;100410.00;4132746;28;20045;-66
2022/05/16 00:18:42;;;;;;;8.95;2.72;;;;;;;19.95;49.27;100408.16;4134942;28;20034;-65
2022/05/16 00:20:45;;;;;;;7.40;3.20;;;;;;;19.92;48.85;100402.94;4132797;28;20050;-65
2022/05/16 00:22:48;;;;;;;8.02;3.20;;;;;;;19.93;49.32;100407.31;4134696;28;20126;-66
2022/05/16 00:24:51;;;;;;;5.80;2.53;;;;;;;19.92;49.78;100408.22;4132716;28;20030;-66
2022/05/16 00:26:54;;;;;;;9.18;2.78;;;;;;;19.93;50.60;100402.94;4132598;28;20035;-65
2022/05/16 00:28:58;;;;;;;8.98;3.25;;;;;;;19.92;51.14;100402.94;4114834;28;20133;-65
2022/05/16 00:31:02;;;;;;;10.05;3.78;;;;;;;19.86;51.24;100396.94;4131714;28;20125;-65
2022/05/16 00:33:05;;;;;;;6.80;3.10;;;;;;;19.80;50.74;100399.72;4131772;28;20046;-65
2022/05/16 00:35:10;;;;;;;6.43;3.45;;;;;;;19.79;50.14;100397.97;4133783;28;20145;-65
2022/05/16 00:37:13;;;;;;;5.22;2.95;;;;;;;19.68;52.15;100400.88;4121223;28;20050;-65
2022/05/16 00:39:17;;;;;;;7.57;3.15;;;;;;;19.67;51.76;100393.00;4126781;28;20113;-65
2022/05/16 00:41:22;;;;;;;5.13;3.15;;;;;;;19.58;51.88;100398.47;4132272;28;20042;-65
2022/05/16 00:43:43;;;;;;;6.55;3.17;;;;;;;19.56;52.18;100402.94;4134233;28;20125;-65
2022/05/16 00:46:01;;;;;;;7.97;3.17;;;;;;;19.42;51.42;100401.50;4127808;28;20039;-65
2022/05/16 00:48:05;;;;;;;6.72;3.42;;;;;;;19.26;50.92;100406.25;4125244;28;20428;-67
2022/05/16 00:50:09;;;;;;;5.18;3.05;;;;;;;19.27;51.40;100405.31;4130462;28;20530;-67
2022/05/16 00:52:16;;;;;;;8.70;3.13;;;;;;;19.39;51.40;100403.31;4131133;28;20050;-67
2022/05/16 00:54:23;;;;;;;5.22;3.10;;;;;;;19.45;50.79;100398.78;4128198;28;20093;-67
2022/05/16 00:56:28;;;;;;;6.88;3.00;;;;;;;19.41;50.69;100398.88;4125894;28;20034;-66
2022/05/16 00:58:31;;;;;;;7.72;3.50;;;;;;;19.39;51.18;100398.94;4132605;28;20125;-67
2022/05/16 01:00:36;;;;;;;5.45;3.22;;;;;;;19.44;50.42;100402.31;4127277;28;20088;-68
2022/05/16 01:05:06;;;;;;;7.55;2.80;;;;;;;19.37;49.50;100398.06;4123679;28;20073;-67
2022/05/16 01:07:09;;;;;;;10.02;3.47;;;;;;;19.45;50.42;100396.13;4130147;28;20424;-67
2022/05/16 01:09:12;;;;;;;8.32;3.28;;;;;;;19.41;50.73;100396.25;4134722;28;20057;-67
2022/05/16 01:11:15;;;;;;;7.47;2.80;;;;;;;19.30;49.98;100399.13;4117400;28;20039;-67
2022/05/16 01:13:18;;;;;;;4.80;2.80;;;;;;;19.23;50.29;100397.53;4132023;28;20038;-67
2022/05/16 01:15:30;;;;;;;8.38;2.50;;;;;;;19.31;49.92;100407.00;4125308;28;20117;-67
2022/05/16 01:17:33;;;;;;;6.18;2.90;;;;;;;19.28;50.05;100396.53;4130232;28;20034;-68
2022/05/16 01:19:38;;;;;;;7.07;3.17;;;;;;;19.38;49.59;100399.81;4147660;28;20431;-67
2022/05/16 01:21:42;;;;;;;11.43;3.10;;;;;;;19.30;49.32;100407.03;4121017;28;20397;-67
2022/05/16 01:23:53;;;;;;;6.22;2.95;;;;;;;19.36;49.03;100396.34;4130318;28;20042;-67
2022/05/16 01:25:56;;;;;;;6.47;2.83;;;;;;;19.38;50.67;100397.19;4128132;28;20578;-67
2022/05/16 01:28:04;;;;;;;9.63;3.35;;;;;;;19.45;51.58;100397.88;4127126;28;20035;-67
2022/05/16 01:30:08;;;;;;;4.90;2.63;;;;;;;19.49;51.67;100397.81;4130552;28;20060;-68
2022/05/16 01:32:11;;;;;;;6.10;3.10;;;;;;;19.53;51.92;100394.16;4130015;28;20042;-68
2022/05/16 01:34:14;;;;;;;8.27;3.03;;;;;;;19.59;51.05;100394.94;4132423;28;20492;-67
2022/05/16 01:36:17;;;;;;;6.00;3.08;;;;;;;19.53;51.48;100394.16;4131215;28;20042;-67
2022/05/16 01:38:22;;;;;;;9.70;3.42;;;;;;;19.54;51.41;100388.00;4126787;28;20056;-67
2022/05/16 01:40:26;;;;;;;8.40;3.10;;;;;;;19.53;51.40;100382.75;4125804;28;20045;-67
2022/05/16 01:42:29;;;;;;;6.85;2.95;;;;;;;19.46;51.63;100389.94;4124007;28;20038;-68
2022/05/16 01:44:32;;;;;;;5.22;2.80;;;;;;;19.48;51.50;100400.47;4132326;28;20049;-67
2022/05/16 01:46:37;;;;;;;9.57;3.22;;;;;;;19.49;51.46;100396.91;4128971;28;20492;-67
2022/05/16 01:48:40;;;;;;;7.20;2.83;;;;;;;19.44;50.66;100397.03;4127455;28;20039;-67
2022/05/16 01:50:45;;;;;;;7.10;2.75;;;;;;;19.45;51.44;100397.88;4126075;28;20044;-67
2022/05/16 01:52:48;;;;;;;10.43;3.15;;;;;;;19.42;50.93;100393.56;4127149;28;20035;-67
2022/05/16 01:54:51;;;;;;;7.95;3.38;;;;;;;19.43;51.05;100390.00;4127747;28;20049;-66
2022/05/16 01:56:55;;;;;;;7.97;2.97;;;;;;;19.44;51.49;100388.28;4127420;28;20031;-69
2022/05/16 01:58:58;;;;;;;8.38;3.08;;;;;;;19.42;51.15;100383.03;4129353;28;20038;-68
2022/05/16 02:01:03;;;;;;;6.13;2.60;;;;;;;19.39;50.92;100382.22;4125862;28;20496;-68
2022/05/16 02:03:06;;;;;;;7.28;2.45;;;;;;;19.40;50.47;100381.31;4127084;28;20085;-68
2022/05/16 02:05:10;;;;;;;6.15;2.88;;;;;;;19.24;50.62;100378.19;4131563;28;20097;-68
2022/05/16 02:07:13;;;;;;;8.75;3.20;;;;;;;19.28;51.19;100379.84;4124554;28;20409;-68
2022/05/16 02:09:15;;;;;;;9.85;3.08;;;;;;;19.38;50.64;100377.84;4132724;28;20042;-68
2022/05/16 02:11:18;;;;;;;12.32;3.08;;;;;;;19.38;50.15;100376.09;4129753;28;20038;-68
2022/05/16 02:13:22;;;;;;;7.07;2.72;;;;;;;19.38;50.66;100370.81;4123231;28;20061;-68
2022/05/16 02:15:29;;;;;;;9.18;2.80;;;;;;;19.38;50.70;100381.38;4131489;28;20100;-68
2022/05/16 02:17:31;;;;;;;8.15;3.15;;;;;;;19.41;50.42;100385.72;4132726;28;20061;-68
2022/05/16 02:19:34;;;;;;;5.43;2.55;;;;;;;19.45;50.70;100376.78;4131364;28;20046;-68
2022/05/16 02:26:18;;;;;;;6.60;2.90;;;;;;;19.45;50.38;100377.69;4113961;28;20511;-68
2022/05/16 02:28:23;;;;;;;6.30;2.95;;;;;;;19.46;50.15;100382.03;4129865;28;20049;-68
2022/05/16 02:30:26;;;;;;;8.23;2.80;;;;;;;19.43;49.77;100382.09;4130946;28;20043;-68
2022/05/16 02:32:29;;;;;;;8.48;2.60;;;;;;;19.43;49.78;100386.53;4131542;28;20465;-68
2022/05/16 02:34:32;;;;;;;6.68;2.92;;;;;;;19.42;50.08;100377.75;4129927;28;20523;-68
2022/05/16 02:36:35;;;;;;;5.68;3.03;;;;;;;19.42;50.64;100390.06;4131370;28;20397;-68
2022/05/16 02:38:38;;;;;;;3.75;2.45;;;;;;;19.29;50.13;100395.63;4132298;28;20127;-68
2022/05/16 02:40:41;;;;;;;6.70;3.00;;;;;;;19.17;50.05;100399.41;4131023;28;20042;-68
2022/05/16 02:42:44;;;;;;;7.43;3.10;;;;;;;19.15;50.07;100398.56;4130142;28;20042;-68
2022/05/16 02:44:52;;;;;;;6.20;2.78;;;;;;;19.19;50.17;100396.75;4128689;28;20389;-68
2022/05/16 02:46:55;;;;;;;5.88;2.95;;;;;;;19.24;49.55;100381.66;4127900;28;20497;-68
2022/05/16 02:48:58;;;;;;;5.97;2.67;;;;;;;19.29;48.62;100384.19;4122705;28;20432;-67
2022/05/16 02:51:01;;;;;;;6.60;3.13;;;;;;;19.31;48.82;100399.09;4131036;28;20034;-68
2022/05/16 02:53:03;;;;;;;5.93;2.50;;;;;;;19.32;48.79;100411.38;4128865;28;20042;-67
2022/05/16 02:55:07;;;;;;;9.27;2.63;;;;;;;19.30;48.72;100417.56;4128973;28;20113;-68
2022/05/16 02:57:10;;;;;;;6.97;2.58;;;;;;;19.33;48.47;100412.22;4129316;28;20089;-67
2022/05/16 02:59:13;;;;;;;5.75;2.55;;;;;;;19.31;48.50;100421.94;4110066;28;20051;-68
2022/05/16 03:01:18;;;;;;;6.85;3.13;;;;;;;19.33;48.92;100425.41;4128660;28;20038;-67
2022/05/16 03:03:20;;;;;;;6.65;2.63;;;;;;;19.28;50.42;100416.75;4117054;28;20046;-67
2022/05/16 03:05:23;;;;;;;7.43;2.90;;;;;;;19.27;50.20;100417.66;4145099;28;20077;-67
2022/05/16 03:07:26;;;;;;;5.90;3.05;;;;;;;19.25;50.41;100419.47;4129598;28;20042;-67
2022/05/16 03:09:29;;;;;;;6.55;2.72;;;;;;;19.25;50.01;100424.72;4126409;28;20504;-67
2022/05/16 03:11:32;;;;;;;6.68;2.67;;;;;;;19.22;49.90;100425.66;4111562;28;20223;-68
2022/05/16 03:13:35;;;;;;;5.47;2.33;;;;;;;19.15;49.95;100427.53;4129404;28;20045;-68
2022/05/16 03:15:38;;;;;;;7.93;3.08;;;;;;;19.12;50.10;100414.44;4126759;28;20456;-68
2022/05/16 03:17:43;;;;;;;8.48;2.67;;;;;;;19.09;50.24;100427.69;4130282;28;20031;-68
2022/05/16 03:19:46;;;;;;;5.60;2.40;;;;;;;19.05;50.48;100420.75;4130372;28;20081;-68
2022/05/16 03:21:49;;;;;;;5.35;2.85;;;;;;;19.00;50.72;100422.63;4130451;28;20042;-68
2022/05/16 03:23:52;;;;;;;4.07;2.28;;;;;;;18.98;50.42;100421.78;4130971;28;20125;-68
2022/05/16 03:25:55;;;;;;;7.68;2.85;;;;;;;18.97;50.00;100423.56;4128298;28;20054;-67
2022/05/16 03:27:58;;;;;;;8.80;3.08;;;;;;;18.94;49.93;100414.81;4130012;28;20031;-68
2022/05/16 03:30:09;;;;;;;5.65;2.65;;;;;;;18.89;50.12;100419.34;4127328;28;20109;-68
2022/05/16 03:32:12;;;;;;;4.70;2.38;;;;;;;18.83;50.53;100421.16;4127766;28;20042;-68
2022/05/16 03:34:16;;;;;;;6.78;3.10;;;;;;;18.83;50.31;100425.56;4128915;28;20389;-68
2022/05/16 03:36:19;;;;;;;7.85;2.70;;;;;;;18.78;50.63;100417.75;4127017;28;20542;-68
2022/05/16 03:40:45;;;;;;;5.90;2.55;;;;;;;18.69;50.89;100423.22;4127202;28;20583;-68
2022/05/16 03:42:47;;;;;;;6.35;2.70;;;;;;;18.61;51.27;100422.50;4128392;28;20046;-68
2022/05/16 03:44:50;;;;;;;13.35;3.05;;;;;;;18.60;51.09;100424.28;4125618;28;20053;-68
2022/05/16 03:46:53;;;;;;;5.13;3.00;;;;;;;18.53;51.11;100422.66;4129501;28;20030;-68
2022/05/16 03:48:56;;;;;;;5.32;2.42;;;;;;;18.47;51.47;100421.00;4124055;28;20039;-68
2022/05/16 03:51:02;;;;;;;6.32;2.65;;;;;;;18.45;51.93;100425.41;4124733;28;20045;-68
2022/05/16 03:53:05;;;;;;;6.50;3.10;;;;;;;18.43;52.39;100426.38;4128710;28;20040;-67
2022/05/16 03:55:12;;;;;;;7.28;2.70;;;;;;;18.45;52.79;100430.69;4126101;28;20600;-68
2022/05/16 03:57:15;;;;;;;6.78;3.15;;;;;;;18.45;52.77;100428.06;4130926;28;20049;-68
2022/05/16 03:59:19;;;;;;;6.13;2.80;;;;;;;18.47;52.95;100428.00;4119969;28;20170;-68
2022/05/16 04:01:23;;;;;;;4.30;2.70;;;;;;;18.42;53.38;100428.09;4122673;28;20125;-68
2022/05/16 04:03:27;;;;;;;4.32;2.78;;;;;;;18.33;54.77;100430.06;4128841;28;20084;-68
2022/05/16 04:05:30;;;;;;;5.38;3.05;;;;;;;18.28;55.51;100438.03;4129746;28;20492;-68
2022/05/16 04:07:35;;;;;;;11.88;3.38;;;;;;;18.36;55.68;100436.13;4124405;28;20053;-68
2022/05/16 04:09:37;;;;;;;12.45;3.75;;;;;;;18.35;55.78;100437.00;4122935;28;20039;-68
2022/05/16 04:11:40;;;;;;;6.53;3.00;;;;;;;18.36;56.25;100425.59;4124714;28;20373;-68
2022/05/16 04:13:43;;;;;;;5.85;3.40;;;;;;;18.36;56.33;100432.63;4124872;28;20038;-68
2022/05/16 04:15:46;;;;;;;7.85;3.03;;;;;;;18.28;56.37;100433.66;4127865;28;20038;-68
2022/05/16 04:17:49;;;;;;;5.07;3.08;;;;;;;18.26;56.85;100434.56;4141324;28;20129;-68
2022/05/16 04:19:52;;;;;;;8.07;3.00;;;;;;;18.29;56.48;100439.75;4125750;28;20034;-68
2022/05/16 04:21:55;;;;;;;6.72;2.88;;;;;;;18.27;56.61;100431.03;4129638;28;20496;-68
2022/05/16 04:23:59;;;;;;;5.30;3.17;;;;;;;18.25;57.10;100440.72;4122242;28;20049;-68
2022/05/16 04:26:02;;;;;;;7.00;3.45;;;;;;;18.27;57.45;100433.69;4130105;28;20164;-68
2022/05/16 04:28:05;;;;;;;7.05;3.42;;;;;;;18.28;57.89;100438.03;4124932;28;20122;-68
2022/05/16 04:30:09;;;;;;;10.93;3.73;;;;;;;18.34;58.07;100430.03;4143107;28;20474;-68
2022/05/16 04:32:12;;;;;;;8.52;3.65;;;;;;;18.38;56.25;100429.06;4129203;28;20325;-68
2022/05/16 04:34:15;;;;;;;6.05;3.70;;;;;;;18.45;55.42;100432.47;4129469;28;20034;-68
2022/05/16 04:36:19;;;;;;;7.05;3.33;;;;;;;18.51;55.37;100434.09;4124338;28;20043;-68
2022/05/16 04:38:22;;;;;;;13.27;3.28;;;;;;;18.55;55.99;100435.78;4123469;28;20145;-68
2022/05/16 04:40:26;;;;;;;6.25;2.95;;;;;;;18.59;56.86;100445.38;4129943;28;20404;-68
2022/05/16 04:42:40;;;;;;;;;;;;;;;18.44;57.40;100444.75;4125662;28;20038;-68
2022/05/16 04:45:09;;;;;;;10.50;2.92;;;;;;;18.57;57.99;100444.53;4129509;28;20273;-67
2022/05/16 04:47:12;;;;;;;5.75;3.15;;;;;;;18.60;57.97;100444.44;4133300;28;20053;-68
2022/05/16 04:49:15;;;;;;;11.82;3.20;;;;;;;18.58;58.31;100441.84;4133759;28;20054;-67
2022/05/16 04:51:18;;;;;;;5.88;2.95;;;;;;;18.62;58.31;100447.94;4133736;28;20049;-68
2022/05/16 04:53:27;;;;;;;6.80;3.00;;;;;;;18.62;58.25;100446.16;4144676;28;20031;-68
2022/05/16 04:55:31;;;;;;;10.00;2.78;;;;;;;18.69;57.55;100446.03;4131600;28;20096;-68
2022/05/16 04:57:35;;;;;;;8.95;3.30;;;;;;;18.71;57.76;100453.03;4133889;28;20046;-68
2022/05/16 04:59:38;;;;;;;7.40;3.47;;;;;;;18.77;57.92;100455.53;4133676;28;20053;-68
2022/05/16 05:01:41;;;;;;;9.45;3.10;;;;;;;18.82;57.73;100456.31;4133766;28;20050;-67
2022/05/16 05:03:44;;;;;;;8.70;3.22;;;;;;;18.86;57.89;100450.97;4133881;28;20053;-67
2022/05/16 05:05:47;;;;;;;6.90;2.60;;;;;;;18.92;57.89;100456.16;4132637;28;20156;-67
2022/05/16 05:07:50;;;;;;;7.13;3.63;;;;;;;18.93;57.36;100448.22;4133802;28;20572;-67
2022/05/16 05:14:38;;;;;;;5.82;3.10;;;;;;;19.00;58.02;100455.09;4133480;28;20580;-68
2022/05/16 05:16:41;;;;;;;10.60;3.70;;;;;;;19.05;58.17;100456.78;4133519;28;20062;-67
2022/05/16 05:18:45;;;;;;;10.80;4.20;;;;;;;19.00;57.53;100451.59;4133551;28;20041;-67
2022/05/16 05:20:47;;;;;;;8.23;3.15;;;;;;;18.99;57.05;100453.34;4133191;28;20047;-67
2022/05/16 05:22:50;;;;;;;6.82;2.97;;;;;;;19.08;57.05;100457.56;4133598;28;20412;-68
2022/05/16 05:24:53;;;;;;;8.77;3.58;;;;;;;19.09;57.30;100459.31;4132333;28;20496;-68
2022/05/16 05:26:56;;;;;;;8.13;3.42;;;;;;;19.09;57.43;100458.44;4133557;28;20057;-68
2022/05/16 05:29:00;;;;;;;7.22;2.88;;;;;;;19.14;57.74;100457.47;4133283;28;20042;-68
2022/05/16 05:31:03;;;;;;;6.60;3.50;;;;;;;19.12;57.88;100467.16;4131701;28;20585;-68
2022/05/16 05:33:06;;;;;;;7.80;3.40;;;;;;;19.17;58.04;100456.50;4133379;28;20042;-68
2022/05/16 05:35:10;;;;;;;8.85;3.58;;;;;;;19.17;56.23;100462.66;4133406;28;20046;-68
2022/05/16 05:37:14;;;;;;;5.55;2.63;;;;;;;19.11;55.95;100464.53;4132120;28;20542;-68
2022/05/16 05:39:17;;;;;;;5.18;2.88;;;;;;;19.11;55.53;100465.41;4133316;28;20395;-68
2022/05/16 05:41:21;;;;;;;4.18;2.60;;;;;;;19.21;55.87;100478.41;4132935;28;20129;-68
2022/05/16 05:43:24;;;;;;;;;;;;;;;19.06;54.68;100469.91;4133389;28;20060;-68
2022/05/16 05:45:28;;;;;;;8.73;2.40;;;;;;;19.17;54.46;100473.19;4133221;28;20379;-68
2022/05/16 05:47:31;;;;;;;7.55;2.90;;;;;;;19.26;54.78;100477.41;4133427;28;20100;-68
2022/05/16 05:49:34;;;;;;;4.85;2.63;;;;;;;19.33;54.50;100476.38;4131869;28;20129;-68
2022/05/16 05:51:37;;;;;;;4.50;2.50;;;;;;;19.35;53.87;100478.97;4132934;28;20045;-68
2022/05/16 05:53:41;;;;;;;4.72;2.55;;;;;;;19.38;53.92;100480.66;4131851;28;20046;-68
2022/05/16 05:55:46;;;;;;;3.50;2.00;;;;;;;19.42;54.53;100477.94;4130908;28;20100;-68
2022/05/16 05:57:49;;;;;;;5.30;2.30;;;;;;;19.48;54.79;100483.06;4127910;28;20035;-68
2022/05/16 05:59:52;;;;;;;8.60;2.78;;;;;;;19.49;54.49;100489.19;4132637;28;20035;-68
2022/05/16 06:01:56;;;;;;;5.28;2.08;;;;;;;19.53;54.39;100489.09;4131748;28;20134;-68
2022/05/16 06:03:59;;;;;;;5.95;3.20;;;;;;;19.56;54.80;100493.44;4131782;28;20479;-68
2022/05/16 06:06:02;;;;;;;8.55;2.50;;;;;;;19.65;54.63;100492.38;4131585;28;20042;-68
2022/05/16 06:08:05;;;;;;;4.22;2.38;;;;;;;19.71;54.88;100503.66;4132883;28;20045;-68
2022/05/16 06:10:09;;;;;;;5.82;3.05;;;;;;;19.71;54.46;100506.28;4131236;28;20046;-68
2022/05/16 06:12:12;;;;;;;7.82;2.80;;;;;;;19.72;54.42;100512.44;4132550;28;20404;-68
2022/05/16 06:14:15;;;;;;;4.95;2.58;;;;;;;19.70;54.11;100523.00;4132797;28;20038;-68
2022/05/16 06:16:18;;;;;;;8.73;2.30;;;;;;;19.68;54.20;100518.66;4132721;28;20039;-68
2022/05/16 06:18:23;;;;;;;6.30;2.63;;;;;;;19.75;54.32;100516.78;4132618;28;20141;-68
2022/05/16 06:20:26;;;;;;;6.80;2.63;;;;;;;19.78;54.35;100519.34;4132327;28;20419;-68
2022/05/16 06:22:34;;;;;;;4.70;2.22;;;;;;;19.85;54.17;100527.09;4115355;28;20133;-68
2022/05/16 06:26:58;;;;;;;5.80;2.67;;;;;;;19.95;55.14;100521.63;4132378;28;20112;-68
2022/05/16 06:29:00;;;;;;;4.18;2.20;;;;;;;20.03;55.27;100522.28;4132560;28;20058;-68
2022/05/16 06:31:04;;;;;;;6.78;2.78;;;;;;;20.07;55.19;100528.38;4130856;28;20050;-68
2022/05/16 06:33:06;;;;;;;9.77;4.22;;;;;;;20.11;55.70;100524.75;4132481;28;20050;-68
2022/05/16 06:35:11;;;;;;;7.55;3.30;;;;;;;20.17;55.77;100521.97;4132458;28;20065;-68
2022/05/16 06:37:14;;;;;;;5.68;2.40;;;;;;;20.02;55.25;100534.63;4132134;28;20042;-68
2022/05/16 06:39:16;;;;;;;11.93;3.15;;;;;;;20.02;55.54;100537.25;4131417;28;20515;-67
2022/05/16 06:41:19;;;;;;;6.47;2.42;;;;;;;20.02;56.20;100541.69;4132054;28;20065;-68
2022/05/16 06:43:24;;;;;;;9.55;3.03;;;;;;;20.07;56.64;100541.56;4132301;28;20046;-68
2022/05/16 06:45:28;;;;;;;6.13;3.08;;;;;;;20.06;56.69;100548.59;4131106;28;20050;-68
2022/05/16 06:47:31;;;;;;;6.40;3.10;;;;;;;20.10;55.86;100546.78;4131118;28;20117;-68
2022/05/16 06:49:34;;;;;;;8.38;2.67;;;;;;;20.11;56.13;100543.25;4132113;28;20121;-68
2022/05/16 06:51:38;;;;;;;10.93;2.97;;;;;;;20.16;56.07;100543.97;4146738;28;20049;-68
2022/05/16 06:53:41;;;;;;;;;;;;;;;19.99;56.67;100547.00;4132603;28;20049;-68
2022/05/16 06:55:45;;;;;;;8.52;3.47;;;;;;;20.19;56.86;100541.25;4132129;28;19922;-68
2022/05/16 06:57:48;;;;;;;11.23;3.28;;;;;;;20.21;56.56;100548.25;4132157;28;20078;-68
2022/05/16 06:59:51;;;;;;;10.68;3.00;;;;;;;20.29;56.41;100541.91;4131612;28;20049;-68
2022/05/16 07:01:53;;;;;;;8.43;2.65;;;;;;;20.28;57.00;100548.09;4131837;28;20480;-68
2022/05/16 07:03:56;;;;;;;7.10;2.97;;;;;;;20.28;56.73;100548.09;4132247;28;20064;-68
2022/05/16 07:06:00;;;;;;;5.28;2.53;;;;;;;20.31;57.11;100551.53;4131396;28;20041;-68
2022/05/16 07:08:04;;;;;;;8.63;3.25;;;;;;;20.29;57.00;100549.84;4129056;28;20588;-68
2022/05/16 07:10:08;;;;;;;6.43;3.03;;;;;;;20.31;57.79;100554.19;4128407;28;20034;-68
2022/05/16 07:12:11;;;;;;;4.60;2.88;;;;;;;20.36;58.05;100556.69;4146791;28;20038;-68
2022/05/16 07:14:14;;;;;;;10.85;3.75;;;;;;;20.50;57.34;100548.41;4131940;28;20053;-68
2022/05/16 07:16:17;;;;;;;9.40;3.50;;;;;;;20.54;57.94;100558.00;4131869;28;20038;-68
2022/05/16 07:18:21;;;;;;;8.23;3.00;;;;;;;20.59;56.54;100553.47;4130466;28;20109;-68
2022/05/16 07:20:23;;;;;;;5.07;3.10;;;;;;;20.75;57.24;100556.63;4131396;28;20582;-68
2022/05/16 07:22:26;;;;;;;9.25;3.13;;;;;;;20.80;56.04;100546.78;4131617;28;20448;-68
2022/05/16 07:24:30;;;;;;;9.13;2.83;;;;;;;20.90;56.13;100557.97;4131776;28;20526;-68
2022/05/16 07:28:54;;;;;;;5.50;2.80;;;;;;;21.11;55.39;100561.81;4131709;28;20049;-68
2022/05/16 07:30:57;;;;;;;13.30;3.95;;;;;;;21.20;54.62;100561.56;4131236;28;20043;-68
2022/05/16 07:33:01;;;;;;;8.82;3.45;;;;;;;21.29;53.76;100563.06;4131693;28;20041;-68
2022/05/16 07:35:05;;;;;;;7.72;3.03;;;;;;;21.22;53.62;100553.59;4131688;28;20467;-68
2022/05/16 07:37:09;;;;;;;6.28;3.10;;;;;;;21.22;53.48;100561.50;4130329;28;20488;-68
2022/05/16 07:39:12;;;;;;;11.90;4.27;;;;;;;21.29;53.31;100560.44;4131610;28;20417;-68
2022/05/16 07:41:16;;;;;;;4.25;2.47;;;;;;;21.45;52.99;100564.34;4130001;28;20305;-68
2022/05/16 07:43:19;;;;;;;7.07;3.20;;;;;;;21.58;52.90;100554.31;4131612;28;20172;-68
2022/05/16 07:45:23;;;;;;;4.60;2.57;;;;;;;21.64;52.85;100563.84;4131729;28;20134;-68
2022/05/16 07:47:26;;;;;;;7.30;3.15;;;;;;;21.61;51.92;100563.91;4130429;28;20046;-69
2022/05/16 07:49:29;;;;;;;9.63;3.60;;;;;;;21.85;51.17;100559.66;4131470;28;20456;-69
2022/05/16 07:51:32;;;;;;;6.25;3.05;;;;;;;21.77;51.57;100561.69;4130902;28;20035;-69
2022/05/16 07:53:35;;;;;;;7.45;2.80;;;;;;;21.80;51.81;100564.25;4131517;28;20039;-68
2022/05/16 07:55:40;;;;;;;5.75;3.03;;;;;;;21.78;52.16;100568.72;4131517;28;20103;-68
2022/05/16 07:57:44;;;;;;;10.98;3.53;;;;;;;21.91;52.03;100571.84;4131517;28;20590;-68
2022/05/16 07:59:47;;;;;;;;;;;;;;;21.85;51.05;100575.53;4131497;28;20137;-68
2022/05/16 08:01:50;;;;;;;6.30;3.10;;;;;;;22.00;51.27;100570.69;4146190;28;20387;-68
2022/05/16 08:03:53;;;;;;;9.20;3.10;;;;;;;22.18;51.21;100575.41;4130140;28;20042;-68
2022/05/16 08:05:56;;;;;;;6.78;2.97;;;;;;;22.15;50.86;100580.78;4131392;28;20451;-69
2022/05/16 08:10:31;;;;;;;5.88;3.30;;;;;;;22.24;51.11;100561.97;4146041;28;20330;-68
2022/05/16 08:12:36;;;;;;;;;;;;;;;22.29;50.39;100559.16;4114587;28;20057;-69
2022/05/16 08:14:43;;;;;;;6.05;2.88;;;;;;;22.46;50.32;100564.78;4131304;28;19922;-69
2022/05/16 08:16:46;;;;;;;7.97;3.42;;;;;;;22.66;49.93;100564.13;4130991;28;20038;-68
2022/05/16 08:18:50;;;;;;;9.60;3.10;;;;;;;22.75;50.23;100575.31;4131346;28;20559;-68
2022/05/16 08:20:52;;;;;;;8.93;4.28;;;;;;;22.81;49.55;100581.28;4132770;28;20042;-68
2022/05/16 08:22:56;;;;;;;8.80;4.22;;;;;;;22.91;49.09;100576.53;4133248;28;20053;-68
2022/05/16 08:24:59;;;;;;;8.43;3.90;;;;;;;22.91;49.36;100568.56;4134390;28;20133;-68
2022/05/16 08:27:08;;;;;;;10.57;3.70;;;;;;;23.01;49.75;100577.03;4134447;28;20053;-68
2022/05/16 08:29:11;;;;;;;8.25;3.47;;;;;;;23.00;49.30;100575.34;4134388;28;20512;-69
2022/05/16 08:31:15;;;;;;;7.55;3.50;;;;;;;23.14;49.69;100581.03;4133685;28;20046;-68
2022/05/16 08:33:18;;;;;;;;;;;;;;;23.11;49.64;100575.81;4133487;28;20600;-69
2022/05/16 08:35:23;;;;;;;8.98;3.78;;;;;;;23.06;48.94;100579.56;4134311;28;19921;-69
2022/05/16 08:39:55;;;;;;;8.85;3.95;;;;;;;23.36;48.94;100588.19;4083949;28;20149;-68
2022/05/16 08:42:02;;;;;;;7.82;3.60;;;;;;;23.40;48.79;100588.97;4134311;28;20042;-69
2022/05/16 08:44:13;;;;;;;7.82;3.15;;;;;;;23.49;48.72;100592.13;4134208;28;20061;-69
2022/05/16 08:46:27;;;;;;;10.30;4.00;;;;;;;23.60;48.64;100586.41;4134335;28;20050;-68
2022/05/16 08:48:34;;;;;;;9.05;3.15;;;;;;;23.66;48.21;100588.84;4134041;28;20133;-69
2022/05/16 08:50:42;;;;;;;6.70;4.00;;;;;;;23.79;47.87;100586.56;4133697;28;20415;-68
2022/05/16 08:52:52;;;;;;;6.88;3.30;;;;;;;23.80;48.48;100593.63;4130941;28;20058;-69
2022/05/16 08:55:00;;;;;;;10.23;3.30;;;;;;;23.73;48.01;100588.59;4133888;28;20041;-68
2022/05/16 08:57:07;;;;;;;6.72;3.80;;;;;;;23.87;48.84;100586.31;4134180;28;20077;-67
2022/05/16 08:59:14;;;;;;;10.15;3.90;;;;;;;24.08;47.64;100586.38;4117511;28;20101;-68
2022/05/16 09:01:24;;;;;;;8.98;3.40;;;;;;;24.11;47.91;100576.50;4115905;28;20472;-68
2022/05/16 09:03:35;;;;;;;6.97;3.55;;;;;;;24.18;47.31;100571.78;4130064;28;20027;-68
2022/05/16 09:05:44;;;;;;;15.25;4.50;;;;;;;24.40;47.59;100572.66;4127465;28;20093;-67
2022/05/16 09:07:51;;;;;;;7.45;3.80;;;;;;;24.47;47.34;100567.94;4132538;28;20126;-68
2022/05/16 09:10:01;;;;;;;9.98;5.28;;;;;;;24.47;47.52;100569.72;4132368;28;20053;-68
2022/05/16 09:12:12;;;;;;;8.35;4.10;;;;;;;24.50;47.46;100570.47;4132074;28;20042;-68
2022/05/16 09:14:29;;;;;;;10.48;4.13;;;;;;;24.65;48.02;100576.09;4125462;28;20031;-68
2022/05/16 09:16:45;;;;;;;11.52;4.32;;;;;;;24.78;48.24;100571.09;4128733;28;20476;-68
2022/05/16 09:18:58;;;;;;;12.30;4.30;;;;;;;24.87;48.13;100573.38;4127826;28;20034;-67
2022/05/16 09:21:11;;;;;;;8.52;3.63;;;;;;;25.02;47.89;100580.69;4116027;28;20126;-66
2022/05/16 09:23:26;;;;;;;9.60;4.78;;;;;;;25.04;47.97;100585.94;4123630;28;20065;-66
2022/05/16 09:25:37;;;;;;;8.98;4.57;;;;;;;25.26;47.25;100586.72;4133594;28;20038;-64
2022/05/16 09:30:06;;;;;;;8.02;4.07;;;;;;;25.23;47.94;100584.19;4132870;28;20140;-66
2022/05/16 09:32:14;;;;;;;7.53;3.17;;;;;;;25.25;47.31;100582.31;4132226;28;20042;-66
2022/05/16 09:34:17;;;;;;;6.20;3.67;;;;;;;25.37;47.77;100583.59;4133425;28;20178;-66
2022/05/16 09:36:23;;;;;;;8.00;3.80;;;;;;;25.47;46.96;100586.69;4129424;28;20122;-66
2022/05/16 09:38:26;;;;;;;7.88;4.00;;;;;;;25.61;46.07;100586.91;4146806;28;20132;-67
2022/05/16 09:40:34;;;;;;;7.63;3.30;;;;;;;25.57;45.08;100595.13;4115479;28;20425;-65
2022/05/16 09:42:38;;;;;;;9.98;3.75;;;;;;;25.48;44.87;100591.09;4133157;28;20038;-66
2022/05/16 09:44:45;;;;;;;10.98;3.72;;;;;;;25.59;45.84;100587.91;4131779;28;20129;-64
2022/05/16 09:46:50;;;;;;;6.38;3.33;;;;;;;25.73;46.55;100598.78;4133284;28;20095;-67
2022/05/16 09:49:04;;;;;;;14.88;3.72;;;;;;;25.79;43.29;100602.97;4130399;28;20041;-65
2022/05/16 09:51:09;;;;;;;10.13;3.53;;;;;;;25.78;43.11;100601.25;4130607;28;20057;-67
2022/05/16 09:53:15;;;;;;;;;;;;;;;25.77;43.21;100605.72;4132272;28;20085;-69
2022/05/16 09:55:29;;;;;;;10.20;3.90;;;;;;;25.91;42.45;100607.72;4133084;28;19922;-66
2022/05/16 09:57:38;;;;;;;9.57;4.05;;;;;;;25.94;43.03;100612.03;4130924;28;20050;-67
2022/05/16 09:59:44;;;;;;;9.02;4.57;;;;;;;25.99;43.15;100601.16;4132649;28;20052;-66
2022/05/16 10:01:53;;;;;;;12.10;4.30;;;;;;;25.93;43.29;100608.50;4132795;28;20042;-64
2022/05/16 10:04:23;;;;;;;7.13;3.55;;;;;;;26.03;43.19;100598.28;4131869;28;20046;-63
2022/05/16 10:06:30;;;;;;;11.85;4.38;;;;;;;26.11;43.34;100606.78;4131272;28;20389;-63